createdAt,value
2022-09-04T00:01:20.568Z,8.00
2022-09-04T00:03:47.764Z,7.73
2022-09-04T00:06:17.520Z,8.33
2022-09-04T00:08:53.908Z,7.90
2022-09-04T00:11:20.900Z,7.83
2022-09-04T00:14:00.732Z,7.70
2022-09-04T00:16:46.841Z,7.90
2022-09-04T00:19:14.463Z,7.53
2022-09-04T00:21:44.674Z,8.23
2022-09-04T00:24:15.871Z,8.17
2022-09-04T00:27:01.689Z,7.80
2022-09-04T00:29:29.249Z,7.37
2022-09-04T00:32:06.834Z,7.40
2022-09-04T00:34:40.086Z,8.40
2022-09-04T00:37:08.813Z,7.60
2022-09-04T00:39:47.857Z,7.47
2022-09-04T00:42:14.943Z,8.03
2022-09-04T00:44:44.822Z,8.10
2022-09-04T00:47:30.598Z,8.30
2022-09-04T00:50:12.178Z,8.07
2022-09-04T00:52:58.579Z,8.30
2022-09-04T00:55:39.139Z,7.77
2022-09-04T00:58:18.302Z,8.23
2022-09-04T01:00:47.597Z,7.17
2022-09-04T01:03:43.602Z,7.73
2022-09-04T01:06:22.615Z,7.33
2022-09-04T01:09:00.212Z,7.03
2022-09-04T01:11:47.668Z,7.50
2022-09-04T01:14:29.893Z,7.10
2022-09-04T01:17:09.595Z,7.87
2022-09-04T01:19:44.955Z,7.07
2022-09-04T01:22:14.762Z,6.87
2022-09-04T01:24:53.607Z,7.77
2022-09-04T01:27:20.545Z,7.70
2022-09-04T01:29:47.719Z,7.97
2022-09-04T01:32:30.430Z,7.40
2022-09-04T01:35:02.610Z,7.67
2022-09-04T01:37:29.616Z,7.43
2022-09-04T01:40:35.222Z,6.70
2022-09-04T01:43:06.215Z,7.17
2022-09-04T01:45:53.477Z,6.93
2022-09-04T01:48:23.572Z,7.23
2022-09-04T01:50:54.051Z,7.13
2022-09-04T01:53:24.480Z,7.10
2022-09-04T01:56:12.463Z,7.43
2022-09-04T01:58:53.329Z,6.90
2022-09-04T02:01:21.352Z,7.53
2022-09-04T02:03:48.324Z,6.60
2022-09-04T02:06:15.282Z,7.40
2022-09-04T02:09:00.902Z,7.27
2022-09-04T02:11:31.677Z,7.10
2022-09-04T02:14:02.528Z,7.20
2022-09-04T02:16:44.809Z,7.60
2022-09-04T02:19:29.423Z,7.07
2022-09-04T02:22:02.116Z,7.53
2022-09-04T02:24:52.534Z,7.53
2022-09-04T02:27:32.375Z,7.07
2022-09-04T02:30:04.412Z,7.83
2022-09-04T02:32:50.129Z,7.10
2022-09-04T02:35:29.685Z,7.77
2022-09-04T02:37:56.592Z,8.03
2022-09-04T02:40:23.457Z,7.63
2022-09-04T02:42:54.518Z,8.30
2022-09-04T02:45:21.426Z,8.10
2022-09-04T02:48:08.633Z,6.87
2022-09-04T02:50:48.234Z,7.53
2022-09-04T02:53:30.080Z,7.03
2022-09-04T02:56:12.625Z,7.00
2022-09-04T02:58:44.313Z,7.67
2022-09-04T03:01:15.085Z,6.83
2022-09-04T03:03:42.107Z,7.00
2022-09-04T03:06:14.451Z,7.00
2022-09-04T03:08:49.923Z,7.07
2022-09-04T03:11:26.377Z,7.43
2022-09-04T03:13:59.732Z,7.00
2022-09-04T03:16:30.128Z,6.80
2022-09-04T03:19:09.464Z,7.13
2022-09-04T03:21:42.444Z,7.20
2022-09-04T03:24:24.217Z,7.03
2022-09-04T03:26:53.307Z,6.97
2022-09-04T03:29:26.458Z,7.17
2022-09-04T03:32:18.891Z,7.00
2022-09-04T03:35:01.171Z,7.53
2022-09-04T03:37:28.108Z,6.90
2022-09-04T03:40:13.421Z,6.87
2022-09-04T03:42:40.319Z,6.73
2022-09-04T03:45:25.634Z,5.83
2022-09-04T03:47:58.717Z,6.73
2022-09-04T03:50:29.526Z,6.63
2022-09-04T03:53:09.424Z,6.13
2022-09-04T03:55:55.353Z,6.43
2022-09-04T03:58:27.587Z,6.87
2022-09-04T04:00:57.383Z,6.33
2022-09-04T04:03:31.502Z,7.00
2022-09-04T04:06:17.287Z,6.77
2022-09-04T04:08:44.136Z,7.10
2022-09-04T04:11:30.377Z,6.47
2022-09-04T04:14:09.612Z,6.90
2022-09-04T04:16:56.239Z,6.33
2022-09-04T04:19:33.935Z,6.37
2022-09-04T04:22:00.877Z,6.63
2022-09-04T04:24:54.432Z,5.97
2022-09-04T04:27:36.235Z,6.60
2022-09-04T04:30:03.435Z,6.77
2022-09-04T04:32:45.564Z,6.10
2022-09-04T04:35:18.647Z,6.37
2022-09-04T04:37:51.988Z,6.20
2022-09-04T04:40:21.655Z,5.73
2022-09-04T04:42:56.797Z,6.57
2022-09-04T04:45:52.712Z,6.10
2022-09-04T04:48:28.907Z,6.07
2022-09-04T04:51:11.155Z,5.97
2022-09-04T04:53:57.238Z,6.10
2022-09-04T04:56:46.134Z,6.00
2022-09-04T04:59:23.671Z,6.27
2022-09-04T05:01:59.130Z,5.43
2022-09-04T05:04:43.107Z,5.73
2022-09-04T05:07:13.213Z,6.00
2022-09-04T05:09:40.071Z,6.10
2022-09-04T05:12:07.077Z,6.13
2022-09-04T05:14:54.810Z,5.83
2022-09-04T05:17:30.623Z,6.17
2022-09-04T05:20:17.831Z,5.73
2022-09-04T05:22:44.846Z,5.27
2022-09-04T05:25:34.686Z,6.13
2022-09-04T05:28:10.929Z,5.50
2022-09-04T05:30:38.226Z,5.90
2022-09-04T05:33:10.806Z,5.70
2022-09-04T05:35:37.760Z,6.00
2022-09-04T05:38:09.126Z,6.43
2022-09-04T05:40:36.083Z,6.77
2022-09-04T05:43:18.532Z,7.23
2022-09-04T05:45:59.122Z,7.27
2022-09-04T05:48:28.182Z,6.33
2022-09-04T05:51:23.979Z,5.90
2022-09-04T05:54:23.391Z,5.63
2022-09-04T05:57:08.835Z,6.10
2022-09-04T05:59:53.443Z,6.90
2022-09-04T06:02:38.522Z,6.57
2022-09-04T06:05:11.023Z,6.00
2022-09-04T06:07:44.106Z,6.30
2022-09-04T06:10:11.070Z,6.37
2022-09-04T06:13:10.436Z,6.63
2022-09-04T06:15:44.888Z,5.97
2022-09-04T06:18:28.779Z,6.33
2022-09-04T06:21:01.814Z,5.83
2022-09-04T06:23:44.309Z,5.70
2022-09-04T06:26:14.339Z,5.93
2022-09-04T06:28:41.237Z,5.67
2022-09-04T06:31:08.148Z,5.57
2022-09-04T06:33:42.489Z,6.13
2022-09-04T06:36:12.473Z,5.60
2022-09-04T06:38:46.450Z,5.73
2022-09-04T06:41:22.263Z,5.13
2022-09-04T06:43:49.184Z,6.10
2022-09-04T06:46:21.278Z,5.77
2022-09-04T06:48:57.486Z,5.53
2022-09-04T06:51:43.162Z,5.30
2022-09-04T06:54:16.446Z,5.57
2022-09-04T06:57:02.086Z,5.80
2022-09-04T06:59:32.126Z,5.33
2022-09-04T07:02:01.390Z,5.03
2022-09-04T07:04:46.002Z,4.67
2022-09-04T07:07:22.274Z,4.93
2022-09-04T07:10:03.535Z,5.50
2022-09-04T07:12:41.261Z,5.37
2022-09-04T07:15:27.328Z,5.67
2022-09-04T07:18:01.150Z,5.87
2022-09-04T07:20:41.505Z,5.27
2022-09-04T07:23:27.279Z,5.37
2022-09-04T07:26:14.030Z,5.07
2022-09-04T07:28:53.371Z,5.50
2022-09-04T07:31:33.962Z,5.00
2022-09-04T07:34:00.965Z,4.97
2022-09-04T07:36:34.305Z,4.20
2022-09-04T07:39:23.692Z,4.17
2022-09-04T07:42:01.242Z,3.73
2022-09-04T07:44:50.007Z,3.47
2022-09-04T07:47:19.775Z,4.20
2022-09-04T07:49:49.991Z,3.60
2022-09-04T07:52:26.194Z,3.60
2022-09-04T07:55:12.136Z,3.80
2022-09-04T07:57:58.564Z,4.37
2022-09-04T08:00:26.717Z,4.33
2022-09-04T08:03:12.194Z,4.10
2022-09-04T08:05:41.706Z,4.17
2022-09-04T08:08:11.511Z,4.77
2022-09-04T08:10:38.430Z,4.10
2022-09-04T08:13:15.742Z,3.30
2022-09-04T08:15:44.107Z,4.33
2022-09-04T08:18:16.925Z,4.87
2022-09-04T08:21:02.313Z,5.10
2022-09-04T08:23:46.480Z,4.53
2022-09-04T08:26:18.795Z,4.20
2022-09-04T08:28:46.581Z,4.67
2022-09-04T08:31:46.151Z,4.00
2022-09-04T08:34:14.201Z,4.07
2022-09-04T08:36:41.123Z,4.20
2022-09-04T08:39:11.058Z,4.57
2022-09-04T08:41:37.989Z,4.30
2022-09-04T08:44:23.613Z,4.00
2022-09-04T08:46:54.201Z,4.63
2022-09-04T08:49:22.225Z,4.43
2022-09-04T08:52:08.063Z,4.00
2022-09-04T08:54:37.984Z,4.27
2022-09-04T08:57:08.309Z,4.10
2022-09-04T08:59:47.541Z,3.73
2022-09-04T09:02:14.602Z,3.80
2022-09-04T09:04:44.101Z,4.30
2022-09-04T09:07:14.288Z,4.63
2022-09-04T09:09:41.686Z,4.30
2022-09-04T09:12:27.343Z,4.07
2022-09-04T09:15:23.246Z,3.80
2022-09-04T09:18:09.668Z,4.20
2022-09-04T09:21:02.634Z,3.83
2022-09-04T09:23:43.708Z,3.90
2022-09-04T09:26:16.669Z,4.30
2022-09-04T09:29:02.609Z,4.07
2022-09-04T09:31:38.857Z,4.00
2022-09-04T09:34:11.538Z,3.90
2022-09-04T09:36:46.206Z,4.20
2022-09-04T09:39:22.322Z,4.13
2022-09-04T09:41:59.811Z,3.87
2022-09-04T09:44:33.735Z,4.03
2022-09-04T09:47:19.602Z,4.23
2022-09-04T09:49:49.468Z,3.80
2022-09-04T09:52:27.871Z,3.70
2022-09-04T09:55:13.763Z,3.47
2022-09-04T09:57:59.554Z,3.77
2022-09-04T10:00:30.071Z,3.90
2022-09-04T10:03:00.160Z,3.50
2022-09-04T10:05:46.088Z,3.60
2022-09-04T10:08:35.882Z,3.73
2022-09-04T10:11:10.306Z,3.70
2022-09-04T10:13:55.551Z,4.47
2022-09-04T10:16:31.613Z,3.80
2022-09-04T10:19:11.329Z,3.07
2022-09-04T10:21:57.279Z,3.40
2022-09-04T10:24:44.498Z,4.20
2022-09-04T10:27:34.871Z,4.27
2022-09-04T10:30:01.839Z,3.73
2022-09-04T10:32:31.954Z,3.77
2022-09-04T10:35:11.223Z,3.70
2022-09-04T10:38:01.554Z,3.63
2022-09-04T10:40:42.525Z,3.60
2022-09-04T10:43:31.261Z,4.07
2022-09-04T10:46:02.422Z,3.93
2022-09-04T10:48:38.327Z,4.10
2022-09-04T10:51:23.770Z,4.47
2022-09-04T10:54:09.192Z,4.23
2022-09-04T10:56:39.137Z,3.57
2022-09-04T10:59:13.574Z,4.20
2022-09-04T11:01:55.622Z,4.10
2022-09-04T11:04:41.262Z,4.23
2022-09-04T11:07:30.042Z,3.77
2022-09-04T11:09:56.954Z,3.80
2022-09-04T11:12:45.636Z,3.77
2022-09-04T11:15:12.807Z,3.83
2022-09-04T11:17:58.351Z,4.10
2022-09-04T11:20:45.210Z,3.80
2022-09-04T11:23:21.450Z,4.90
2022-09-04T11:26:07.878Z,4.13
2022-09-04T11:28:53.274Z,4.13
2022-09-04T11:31:21.178Z,3.93
2022-09-04T11:33:48.645Z,4.00
2022-09-04T11:36:19.548Z,3.50
2022-09-04T11:38:46.456Z,4.00
2022-09-04T11:41:36.651Z,4.00
2022-09-04T11:44:12.752Z,3.60
2022-09-04T11:47:00.907Z,3.70
2022-09-04T11:49:46.747Z,3.73
2022-09-04T11:52:17.218Z,4.00
2022-09-04T11:54:44.128Z,3.60
2022-09-04T11:57:14.129Z,4.10
2022-09-04T11:59:50.221Z,3.43
2022-09-04T12:02:23.407Z,4.23
2022-09-04T12:05:02.874Z,3.93
2022-09-04T12:07:37.924Z,3.90
2022-09-04T12:10:22.818Z,3.77
2022-09-04T12:13:15.003Z,4.07
2022-09-04T12:16:05.821Z,4.07
2022-09-04T12:18:54.652Z,4.80
2022-09-04T12:21:54.057Z,4.37
2022-09-04T12:24:33.283Z,3.80
2022-09-04T12:27:18.829Z,4.57
2022-09-04T12:29:54.966Z,4.17
2022-09-04T12:32:33.900Z,4.27
2022-09-04T12:35:27.470Z,4.13
2022-09-04T12:38:29.402Z,4.20
2022-09-04T12:41:07.013Z,3.93
2022-09-04T12:43:34.008Z,4.17
2022-09-04T12:46:12.924Z,4.23
2022-09-04T12:49:06.333Z,3.60
2022-09-04T12:51:53.454Z,3.30
2022-09-04T12:54:20.544Z,3.80
2022-09-04T12:57:12.417Z,4.10
2022-09-04T13:00:10.510Z,4.50
2022-09-04T13:02:49.399Z,3.97
2022-09-04T13:05:19.645Z,4.00
2022-09-04T13:07:46.609Z,3.83
2022-09-04T13:10:19.506Z,4.87
2022-09-04T13:12:54.001Z,4.10
2022-09-04T13:15:33.459Z,4.70
2022-09-04T13:18:09.427Z,4.63
2022-09-04T13:20:50.572Z,4.73
2022-09-04T13:23:35.265Z,4.10
2022-09-04T13:26:04.131Z,4.43
2022-09-04T13:28:40.362Z,4.57
2022-09-04T13:31:19.567Z,4.57
2022-09-04T13:33:49.620Z,3.80
2022-09-04T13:36:41.171Z,4.00
2022-09-04T13:39:22.560Z,4.00
2022-09-04T13:41:51.074Z,4.37
2022-09-04T13:44:38.565Z,4.13
2022-09-04T13:47:09.187Z,4.03
2022-09-04T13:49:40.701Z,4.20
2022-09-04T13:52:28.009Z,4.50
2022-09-04T13:55:03.311Z,4.93
2022-09-04T13:57:37.373Z,4.03
2022-09-04T14:00:07.805Z,4.30
2022-09-04T14:02:36.798Z,4.80
2022-09-04T14:05:04.902Z,4.37
2022-09-04T14:07:36.454Z,4.30
2022-09-04T14:10:10.732Z,4.30
2022-09-04T14:12:55.978Z,4.63
2022-09-04T14:15:22.894Z,4.37
2022-09-04T14:18:05.758Z,4.27
2022-09-04T14:20:40.733Z,4.50
2022-09-04T14:23:20.616Z,3.90
2022-09-04T14:25:53.981Z,4.33
2022-09-04T14:28:25.447Z,3.83
2022-09-04T14:31:01.839Z,4.03
2022-09-04T14:33:40.327Z,3.47
2022-09-04T14:36:25.802Z,4.20
2022-09-04T14:38:56.824Z,4.00
2022-09-04T14:41:26.298Z,4.00
2022-09-04T14:44:20.957Z,3.63
2022-09-04T14:47:00.087Z,3.87
2022-09-04T14:49:32.027Z,3.67
2022-09-04T14:52:01.474Z,3.40
2022-09-04T14:54:30.887Z,3.37
2022-09-04T14:57:01.593Z,4.63
2022-09-04T14:59:32.995Z,4.70
2022-09-04T15:02:09.167Z,4.03
2022-09-04T15:05:07.652Z,3.63
2022-09-04T15:07:43.362Z,3.67
2022-09-04T15:10:24.592Z,3.20
2022-09-04T15:12:54.737Z,3.53
2022-09-04T15:15:31.817Z,3.37
2022-09-04T15:18:19.329Z,3.30
2022-09-04T15:21:12.582Z,3.20
2022-09-04T15:23:48.017Z,3.63
2022-09-04T15:26:22.345Z,3.60
2022-09-04T15:28:52.170Z,3.40
2022-09-04T15:31:29.699Z,4.27
2022-09-04T15:34:05.055Z,4.07
2022-09-04T15:36:32.117Z,3.53
2022-09-04T15:39:03.376Z,3.67
2022-09-04T15:41:34.343Z,3.77
2022-09-04T15:44:09.937Z,3.90
2022-09-04T15:46:43.103Z,4.20
2022-09-04T15:49:19.470Z,4.10
2022-09-04T15:51:56.503Z,3.70
2022-09-04T15:54:52.485Z,3.47
2022-09-04T15:57:25.262Z,3.60
2022-09-04T16:00:18.531Z,3.57
2022-09-04T16:02:55.008Z,3.93
2022-09-04T16:05:40.890Z,3.90
2022-09-04T16:08:08.974Z,3.43
2022-09-04T16:10:45.134Z,3.63
2022-09-04T16:13:29.993Z,4.57
2022-09-04T16:16:03.959Z,4.30
2022-09-04T16:18:44.034Z,4.53
2022-09-04T16:21:22.626Z,4.27
2022-09-04T16:23:50.101Z,4.70
2022-09-04T16:26:35.154Z,3.80
2022-09-04T16:29:07.003Z,4.37
2022-09-04T16:31:35.062Z,3.90
2022-09-04T16:34:05.776Z,4.00
2022-09-04T16:36:40.482Z,3.70
2022-09-04T16:39:29.108Z,3.90
2022-09-04T16:42:18.926Z,4.17
2022-09-04T16:45:21.502Z,4.03
2022-09-04T16:48:14.500Z,3.80
2022-09-04T16:50:53.568Z,4.33
2022-09-04T16:53:27.663Z,5.30
2022-09-04T16:56:00.203Z,5.20
2022-09-04T16:58:46.348Z,4.67
2022-09-04T17:01:20.735Z,3.80
2022-09-04T17:04:12.546Z,4.23
2022-09-04T17:06:44.455Z,4.00
2022-09-04T17:09:34.543Z,3.80
2022-09-04T17:12:22.480Z,4.30
2022-09-04T17:15:08.369Z,4.90
2022-09-04T17:17:41.261Z,5.83
2022-09-04T17:20:13.158Z,4.40
2022-09-04T17:28:54.220Z,4.53
2022-09-04T17:29:09.938Z,4.43
2022-09-04T17:29:13.813Z,4.73
2022-09-04T17:31:34.480Z,5.00
2022-09-04T17:40:32.260Z,5.43
2022-09-04T17:40:35.700Z,6.03
2022-09-04T17:40:39.103Z,4.60
2022-09-04T17:43:23.451Z,4.80
2022-09-04T17:45:51.693Z,4.57
2022-09-04T17:48:27.137Z,4.50
2022-09-04T17:51:05.120Z,4.23
2022-09-04T17:53:34.861Z,4.03
2022-09-04T17:56:08.290Z,4.23
2022-09-04T17:58:36.214Z,4.03
2022-09-04T18:01:14.452Z,5.03
2022-09-04T18:04:20.514Z,5.20
2022-09-04T18:07:33.587Z,6.20
2022-09-04T18:10:03.123Z,5.73
2022-09-04T18:12:34.718Z,5.23
2022-09-04T18:15:33.951Z,5.73
2022-09-04T18:18:00.830Z,5.27
2022-09-04T18:20:38.109Z,4.83
2022-09-04T18:23:48.123Z,4.50
2022-09-04T18:26:40.088Z,3.87
2022-09-04T18:29:26.418Z,4.53
2022-09-04T18:37:11.743Z,4.63
2022-09-04T18:37:24.934Z,12.90
2022-09-04T18:37:55.896Z,15.27
2022-09-04T18:42:10.662Z,7.07
2022-09-04T18:50:20.301Z,5.87
2022-09-04T18:50:37.751Z,13.27
2022-09-04T18:50:37.752Z,9.53
2022-09-04T18:51:56.183Z,8.70
2022-09-04T18:54:26.199Z,8.00
2022-09-04T18:56:54.920Z,7.70
2022-09-04T18:59:25.589Z,4.80
2022-09-04T19:02:01.229Z,4.17
2022-09-04T19:04:34.503Z,4.30
2022-09-04T19:07:06.816Z,4.40
2022-09-04T19:09:56.202Z,5.23
2022-09-04T19:12:44.515Z,11.37
2022-09-04T19:15:22.086Z,8.30
2022-09-04T19:17:59.230Z,14.37
2022-09-04T19:20:36.907Z,13.50
2022-09-04T19:23:13.313Z,7.23
2022-09-04T19:25:44.820Z,10.07
2022-09-04T19:28:14.547Z,10.57
2022-09-04T19:30:46.931Z,11.47
2022-09-04T19:33:31.949Z,11.37
2022-09-04T19:36:11.443Z,9.10
2022-09-04T19:46:01.661Z,49.80
2022-09-04T19:46:07.992Z,15.53
2022-09-04T19:46:15.285Z,52.93
2022-09-04T19:48:13.257Z,31.20
2022-09-04T19:53:21.952Z,11.63
2022-09-04T19:53:37.590Z,14.90
2022-09-04T19:56:26.480Z,12.67
2022-09-04T19:59:16.554Z,8.83
2022-09-04T20:02:02.919Z,10.63
2022-09-04T20:04:33.932Z,9.10
2022-09-04T20:07:06.773Z,8.57
2022-09-04T20:09:40.261Z,12.40
2022-09-04T20:12:25.802Z,19.17
2022-09-04T20:14:55.348Z,18.43
2022-09-04T20:17:29.371Z,16.63
2022-09-04T20:19:59.156Z,10.90
2022-09-04T20:22:32.657Z,12.13
2022-09-04T20:25:14.992Z,12.57
2022-09-04T20:27:51.520Z,11.13
2022-09-04T20:30:22.394Z,9.73
2022-09-04T20:32:53.070Z,10.10
2022-09-04T20:35:35.002Z,10.53
2022-09-04T20:38:23.557Z,8.03
2022-09-04T20:41:01.171Z,9.13
2022-09-04T20:43:46.750Z,10.37
2022-09-04T20:52:44.714Z,10.13
2022-09-04T20:52:48.761Z,8.03
2022-09-04T20:52:55.453Z,7.50
2022-09-04T20:55:18.658Z,6.97
2022-09-04T21:01:52.970Z,6.80
2022-09-04T21:03:08.254Z,6.83
2022-09-04T21:03:35.019Z,6.50
2022-09-04T21:06:28.677Z,7.20
2022-09-04T21:09:17.458Z,6.90
2022-09-04T21:11:53.581Z,7.20
2022-09-04T21:14:30.075Z,5.67
2022-09-04T21:17:35.076Z,5.93
2022-09-04T21:20:17.300Z,5.97
2022-09-04T21:22:56.379Z,5.40
2022-09-04T21:25:30.927Z,4.60
2022-09-04T21:28:06.877Z,5.50
2022-09-04T21:30:54.219Z,5.43
2022-09-04T21:33:34.554Z,6.43
2022-09-04T21:36:11.678Z,5.60
2022-09-04T21:39:02.880Z,5.60
2022-09-04T21:41:38.783Z,5.33
2022-09-04T21:44:05.947Z,5.60
2022-09-04T21:46:53.534Z,5.60
2022-09-04T21:49:39.435Z,5.80
2022-09-04T21:52:26.901Z,5.87
2022-09-04T21:59:04.676Z,5.70
2022-09-04T22:02:30.335Z,5.97
2022-09-04T22:02:43.086Z,5.70
2022-09-04T22:03:31.798Z,5.53
2022-09-04T22:06:08.675Z,5.87
2022-09-04T22:13:30.940Z,6.30
2022-09-04T22:13:46.655Z,14.37
2022-09-04T22:14:47.515Z,11.43
2022-09-04T22:17:23.401Z,8.33
2022-09-04T22:19:53.641Z,6.93
2022-09-04T22:22:20.525Z,6.80
2022-09-04T22:24:50.343Z,6.17
2022-09-04T22:27:37.660Z,6.23
2022-09-04T22:30:23.075Z,6.37
2022-09-04T22:33:02.154Z,6.60
2022-09-04T22:35:35.991Z,5.70
2022-09-04T22:38:06.431Z,5.93
2022-09-04T22:40:44.498Z,6.67
2022-09-04T22:43:26.389Z,6.80
2022-09-04T22:46:11.988Z,6.80
2022-09-04T22:49:12.278Z,6.73
2022-09-04T22:51:59.199Z,5.50
2022-09-04T22:54:31.671Z,6.33
2022-09-04T22:57:03.916Z,6.27
2022-09-04T22:59:55.714Z,6.37
2022-09-04T23:02:46.011Z,5.90
2022-09-04T23:05:13.006Z,5.70
2022-09-04T23:13:43.460Z,5.87
2022-09-04T23:13:49.424Z,6.37
2022-09-04T23:14:02.133Z,6.03
2022-09-04T23:16:42.849Z,5.83
2022-09-04T23:26:23.469Z,6.60
2022-09-04T23:26:34.916Z,6.30
2022-09-04T23:26:43.386Z,6.70
2022-09-04T23:28:57.911Z,6.10
2022-09-04T23:31:28.527Z,5.97
2022-09-04T23:34:02.380Z,6.00
2022-09-04T23:36:37.299Z,6.20
2022-09-04T23:39:16.995Z,6.57
2022-09-04T23:42:02.910Z,6.60
2022-09-04T23:44:50.811Z,6.63
2022-09-04T23:47:48.793Z,6.53
2022-09-04T23:50:17.907Z,6.63
2022-09-04T23:52:54.302Z,7.10
2022-09-04T23:55:49.178Z,7.60
2022-09-04T23:58:51.839Z,7.30
